Time;durP1;ratioP1;P1;durP2;ratioP2;P2;SDS_P1;SDS_P2;PMS_P1;PMS_P2;Temp;Humidity;BMP_temperature;BMP_pressure;BME280_temperature;BME280_humidity;BME280_pressure;Samples;Min_cycle;Max_cycle;Signal;HPM_P1;HPM_P2
2024/01/15 00:02:11;;;;;;;;;46.25;41.75;;;;;;;;5060049;28;45514;-73
2024/01/15 00:04:37;;;;;;;;;55.75;46.50;;;;;;;;5042782;28;46073;-73
2024/01/15 00:07:03;;;;;;;;;51.25;42.25;;;;;;;;5060927;28;46275;-74
2024/01/15 00:09:28;;;;;;;;;55.50;43.75;;;;;;;;5061109;28;45400;-74
2024/01/15 00:11:53;;;;;;;;;49.00;42.00;;;;;;;;5061280;28;45350;-73
2024/01/15 00:14:20;;;;;;;;;49.50;41.75;;;;;;;;5061244;28;45327;-74
2024/01/15 00:16:45;;;;;;;;;48.25;43.00;;;;;;;;5060280;28;45374;-74
2024/01/15 00:19:10;;;;;;;;;53.50;46.00;;;;;;;;5042554;28;45379;-73
2024/01/15 00:21:35;;;;;;;;;50.50;45.00;;;;;;;;5060037;28;45328;-73
2024/01/15 00:24:00;;;;;;;;;57.75;46.00;;;;;;;;5060454;28;45438;-73
2024/01/15 00:26:25;;;;;;;;;53.00;43.00;;;;;;;;5042371;28;47414;-73
2024/01/15 00:28:51;;;;;;;;;50.75;42.25;;;;;;;;5042558;28;45287;-73
2024/01/15 00:31:17;;;;;;;;;46.00;39.00;;;;;;;;5061022;28;45185;-73
2024/01/15 00:33:42;;;;;;;;;38.75;36.25;;;;;;;;5060560;28;45302;-74
2024/01/15 00:36:07;;;;;;;;;57.75;46.75;;;;;;;;5042138;28;47070;-74
2024/01/15 00:38:33;;;;;;;;;58.00;47.00;;;;;;;;5060515;28;45165;-73
2024/01/15 00:40:58;;;;;;;;;52.25;45.00;;;;;;;;5042184;28;45317;-73
2024/01/15 00:43:23;;;;;;;;;50.00;43.25;;;;;;;;5042067;28;46146;-74
2024/01/15 00:45:48;;;;;;;;;53.00;43.00;;;;;;;;5042099;28;48322;-73
2024/01/15 00:48:13;;;;;;;;;52.25;43.00;;;;;;;;5060387;28;45350;-73
2024/01/15 00:50:38;;;;;;;;;54.75;42.25;;;;;;;;5060554;28;45312;-74
2024/01/15 00:53:04;;;;;;;;;47.50;41.50;;;;;;;;5060387;28;45541;-73
2024/01/15 00:55:29;;;;;;;;;54.75;43.75;;;;;;;;5059220;28;45308;-73
2024/01/15 00:57:54;;;;;;;;;55.25;42.75;;;;;;;;5060138;28;45350;-73
2024/01/15 01:00:19;;;;;;;;;58.75;47.25;;;;;;;;5042325;28;45284;-73
2024/01/15 01:02:44;;;;;;;;;46.75;41.50;;;;;;;;5060376;28;45323;-73
2024/01/15 01:05:10;;;;;;;;;50.50;45.00;;;;;;;;5060134;28;45429;-73
2024/01/15 01:07:35;;;;;;;;;46.00;42.25;;;;;;;;5060154;28;45286;-73
2024/01/15 01:10:00;;;;;;;;;47.25;42.75;;;;;;;;5060136;28;45288;-74
2024/01/15 01:12:26;;;;;;;;;54.50;42.50;;;;;;;;5041843;28;47340;-74
2024/01/15 01:14:51;;;;;;;;;57.25;45.75;;;;;;;;5060153;28;45367;-73
2024/01/15 01:17:16;;;;;;;;;45.00;40.50;;;;;;;;5059966;28;45292;-73
2024/01/15 01:19:41;;;;;;;;;49.50;41.50;;;;;;;;5041869;28;45397;-73
2024/01/15 01:22:06;;;;;;;;;48.25;42.25;;;;;;;;5059849;28;45358;-73
2024/01/15 01:24:32;;;;;;;;;51.75;42.75;;;;;;;;5059855;28;45429;-73
2024/01/15 01:26:57;;;;;;;;;51.00;41.75;;;;;;;;5041339;28;45394;-74
2024/01/15 01:29:22;;;;;;;;;47.25;40.00;;;;;;;;5060141;28;45428;-73
2024/01/15 01:31:48;;;;;;;;;47.00;40.25;;;;;;;;5059952;28;45298;-73
2024/01/15 01:34:14;;;;;;;;;41.75;37.75;;;;;;;;5059471;28;46074;-73
2024/01/15 01:36:39;;;;;;;;;49.25;40.25;;;;;;;;5059108;28;45343;-73
2024/01/15 01:39:05;;;;;;;;;49.00;41.50;;;;;;;;5058930;28;45252;-74
2024/01/15 01:41:30;;;;;;;;;46.25;41.75;;;;;;;;5057836;28;45307;-73
2024/01/15 01:43:55;;;;;;;;;46.50;40.25;;;;;;;;5059527;28;46465;-73
2024/01/15 01:46:20;;;;;;;;;44.75;39.25;;;;;;;;5041637;28;45308;-73
2024/01/15 01:48:45;;;;;;;;;42.75;37.75;;;;;;;;5059528;28;45381;-73
2024/01/15 01:51:11;;;;;;;;;40.75;37.00;;;;;;;;5059344;28;45242;-73
2024/01/15 01:53:37;;;;;;;;;26.50;21.75;;;;;;;;5059105;28;45638;-73
2024/01/15 01:56:03;;;;;;;;;48.75;43.25;;;;;;;;5059545;28;45342;-73
2024/01/15 01:58:29;;;;;;;;;45.25;39.75;;;;;;;;5041351;28;45360;-73
2024/01/15 02:00:54;;;;;;;;;44.50;35.75;;;;;;;;5041283;28;47040;-73
2024/01/15 02:03:19;;;;;;;;;41.50;39.75;;;;;;;;5058797;28;46325;-74
2024/01/15 02:05:47;;;;;;;;;41.75;37.25;;;;;;;;5059472;28;45410;-73
2024/01/15 02:08:12;;;;;;;;;32.50;30.50;;;;;;;;5065731;28;45361;-73
2024/01/15 02:10:38;;;;;;;;;43.25;38.00;;;;;;;;5065564;28;45419;-73
2024/01/15 02:13:04;;;;;;;;;35.25;35.25;;;;;;;;5047552;28;47212;-74
2024/01/15 02:15:29;;;;;;;;;44.25;40.50;;;;;;;;5066116;28;45294;-73
2024/01/15 02:18:02;;;;;;;;;34.25;33.25;;;;;;;;5047637;28;45271;-74
2024/01/15 02:20:28;;;;;;;;;34.75;32.75;;;;;;;;5047208;28;46343;-73
2024/01/15 02:22:53;;;;;;;;;30.25;27.25;;;;;;;;5065640;28;45312;-73
2024/01/15 02:25:19;;;;;;;;;43.00;37.50;;;;;;;;5065900;28;45539;-73
2024/01/15 02:27:44;;;;;;;;;36.50;29.00;;;;;;;;5066019;28;45449;-73
2024/01/15 02:30:11;;;;;;;;;42.75;36.25;;;;;;;;5047512;28;46265;-74
2024/01/15 02:32:36;;;;;;;;;25.50;23.25;;;;;;;;5065816;28;46429;-73
2024/01/15 02:35:01;;;;;;;;;45.75;40.00;;;;;;;;5065374;28;45229;-73
2024/01/15 02:37:26;;;;;;;;;37.25;34.25;;;;;;;;5065445;28;45234;-73
2024/01/15 02:39:51;;;;;;;;;40.00;35.50;;;;;;;;5065321;28;45463;-73
2024/01/15 02:42:16;;;;;;;;;36.00;33.00;;;;;;;;5065382;28;45930;-73
2024/01/15 02:44:42;;;;;;;;;36.00;32.50;;;;;;;;5065762;28;45358;-73
2024/01/15 02:47:07;;;;;;;;;34.00;31.50;;;;;;;;5065557;28;45475;-73
2024/01/15 02:49:32;;;;;;;;;35.25;33.00;;;;;;;;5065666;28;45225;-73
2024/01/15 02:51:57;;;;;;;;;38.00;31.50;;;;;;;;5065375;28;45299;-73
2024/01/15 02:54:22;;;;;;;;;36.25;32.25;;;;;;;;5065084;28;45314;-73
2024/01/15 02:56:48;;;;;;;;;38.25;34.25;;;;;;;;5065458;28;45351;-73
2024/01/15 02:59:13;;;;;;;;;40.50;34.50;;;;;;;;5065652;28;45200;-73
2024/01/15 03:01:38;;;;;;;;;38.00;32.75;;;;;;;;5065486;28;45351;-73
2024/01/15 03:04:03;;;;;;;;;40.25;34.25;;;;;;;;5065470;28;45297;-73
2024/01/15 03:06:28;;;;;;;;;32.75;29.75;;;;;;;;5065352;28;45221;-73
2024/01/15 03:08:53;;;;;;;;;27.00;24.75;;;;;;;;5046987;28;47031;-73
2024/01/15 03:11:19;;;;;;;;;33.75;29.25;;;;;;;;5064254;28;46035;-73
2024/01/15 03:13:44;;;;;;;;;43.00;38.25;;;;;;;;5046992;28;45344;-73
2024/01/15 03:16:10;;;;;;;;;36.75;33.00;;;;;;;;5065362;28;45522;-73
2024/01/15 03:18:35;;;;;;;;;35.25;31.50;;;;;;;;5061530;28;45321;-73
2024/01/15 03:21:01;;;;;;;;;34.50;30.75;;;;;;;;5061364;28;45294;-73
2024/01/15 03:23:26;;;;;;;;;37.00;36.50;;;;;;;;5043546;28;45354;-73
2024/01/15 03:25:51;;;;;;;;;33.25;31.75;;;;;;;;5043475;28;45470;-73
2024/01/15 03:28:16;;;;;;;;;36.75;30.00;;;;;;;;5043355;28;47041;-73
2024/01/15 03:30:42;;;;;;;;;39.00;32.25;;;;;;;;5043600;28;47574;-73
2024/01/15 03:33:07;;;;;;;;;38.00;34.00;;;;;;;;5061839;28;45370;-73
2024/01/15 03:35:32;;;;;;;;;33.00;32.25;;;;;;;;5061672;28;45379;-73
2024/01/15 03:37:57;;;;;;;;;36.00;33.50;;;;;;;;5061384;28;45312;-73
2024/01/15 03:40:22;;;;;;;;;38.00;33.75;;;;;;;;5061409;28;45367;-73
2024/01/15 03:42:47;;;;;;;;;41.75;34.25;;;;;;;;5061677;28;45438;-73
2024/01/15 03:45:13;;;;;;;;;33.75;28.25;;;;;;;;5061653;28;45371;-73
2024/01/15 03:47:38;;;;;;;;;37.75;30.50;;;;;;;;5060360;28;45486;-73
2024/01/15 03:50:03;;;;;;;;;36.75;33.50;;;;;;;;5043266;28;48544;-73
2024/01/15 03:52:28;;;;;;;;;39.00;34.75;;;;;;;;5061214;28;45325;-73
2024/01/15 03:54:53;;;;;;;;;34.00;30.50;;;;;;;;5060806;28;45425;-73
2024/01/15 03:57:19;;;;;;;;;36.75;32.00;;;;;;;;5060752;28;45312;-73
2024/01/15 03:59:47;;;;;;;;;36.75;36.25;;;;;;;;5043106;28;48386;-73
2024/01/15 04:02:12;;;;;;;;;33.25;29.00;;;;;;;;5061461;28;45159;-73
2024/01/15 04:04:40;;;;;;;;;33.50;29.00;;;;;;;;5061401;28;45358;-73
2024/01/15 04:07:05;;;;;;;;;36.50;33.00;;;;;;;;5061047;28;45474;-73
2024/01/15 04:09:30;;;;;;;;;36.75;32.50;;;;;;;;5060711;28;46042;-73
2024/01/15 04:11:55;;;;;;;;;34.50;29.25;;;;;;;;5060917;28;45388;-73
2024/01/15 04:14:21;;;;;;;;;26.75;22.75;;;;;;;;5061242;28;45287;-73
2024/01/15 04:16:46;;;;;;;;;35.00;34.75;;;;;;;;5060991;28;45347;-73
2024/01/15 04:19:11;;;;;;;;;35.25;30.50;;;;;;;;5060930;28;46265;-73
2024/01/15 04:21:36;;;;;;;;;33.25;31.25;;;;;;;;5060518;28;45435;-73
2024/01/15 04:24:01;;;;;;;;;30.00;27.75;;;;;;;;5061172;28;45344;-73
2024/01/15 04:26:27;;;;;;;;;36.25;29.00;;;;;;;;5042497;28;46034;-73
2024/01/15 04:28:52;;;;;;;;;33.00;30.50;;;;;;;;5042517;28;47412;-73
2024/01/15 04:31:24;;;;;;;;;32.50;26.50;;;;;;;;5042719;28;45375;-73
2024/01/15 04:33:49;;;;;;;;;29.75;26.75;;;;;;;;5060990;28;45296;-73
2024/01/15 04:36:14;;;;;;;;;29.50;26.75;;;;;;;;5060445;28;45329;-73
2024/01/15 04:38:40;;;;;;;;;43.75;33.75;;;;;;;;5060496;28;46294;-73
2024/01/15 04:41:05;;;;;;;;;33.50;30.00;;;;;;;;5042465;28;45292;-74
2024/01/15 04:43:30;;;;;;;;;31.75;28.75;;;;;;;;5060720;28;45467;-73
2024/01/15 04:45:55;;;;;;;;;29.25;28.50;;;;;;;;5060597;28;45542;-73
2024/01/15 04:48:22;;;;;;;;;20.50;20.50;;;;;;;;5060458;28;46475;-73
2024/01/15 04:50:47;;;;;;;;;28.00;27.75;;;;;;;;5060380;28;45430;-73
2024/01/15 04:53:13;;;;;;;;;35.00;27.50;;;;;;;;5060409;28;45269;-73
2024/01/15 04:55:39;;;;;;;;;37.75;28.75;;;;;;;;5042435;28;45778;-73
2024/01/15 04:58:04;;;;;;;;;31.50;27.75;;;;;;;;5059885;28;46318;-74
2024/01/15 05:00:29;;;;;;;;;26.75;25.00;;;;;;;;5060199;28;45537;-73
2024/01/15 05:02:56;;;;;;;;;31.75;29.25;;;;;;;;5042288;28;45240;-74
2024/01/15 05:05:21;;;;;;;;;34.25;29.00;;;;;;;;5060041;28;46099;-73
2024/01/15 05:07:46;;;;;;;;;30.75;29.50;;;;;;;;5060337;28;45349;-73
2024/01/15 05:10:11;;;;;;;;;30.25;25.50;;;;;;;;5042276;28;45229;-74
2024/01/15 05:12:36;;;;;;;;;32.25;29.25;;;;;;;;5060264;28;45311;-73
2024/01/15 05:15:02;;;;;;;;;30.00;28.75;;;;;;;;5060101;28;45596;-73
2024/01/15 05:17:27;;;;;;;;;29.50;28.25;;;;;;;;5060063;28;46151;-73
2024/01/15 05:19:52;;;;;;;;;36.25;34.50;;;;;;;;5059609;28;45352;-73
2024/01/15 05:22:17;;;;;;;;;31.50;25.50;;;;;;;;5060193;28;45331;-73
2024/01/15 05:24:43;;;;;;;;;28.00;22.50;;;;;;;;5060020;28;45451;-73
2024/01/15 05:27:08;;;;;;;;;33.75;27.75;;;;;;;;5059594;28;46152;-73
2024/01/15 05:29:33;;;;;;;;;31.00;26.00;;;;;;;;5060006;28;45462;-73
2024/01/15 05:31:58;;;;;;;;;35.25;32.75;;;;;;;;5060085;28;45292;-73
2024/01/15 05:34:23;;;;;;;;;35.25;29.25;;;;;;;;5040505;28;45950;-73
2024/01/15 05:36:48;;;;;;;;;32.25;24.50;;;;;;;;5059565;28;45338;-73
2024/01/15 05:39:14;;;;;;;;;32.25;29.00;;;;;;;;5059858;28;45251;-73
2024/01/15 05:41:39;;;;;;;;;30.25;28.25;;;;;;;;5059243;28;45300;-73
2024/01/15 05:44:04;;;;;;;;;33.00;30.25;;;;;;;;5059665;28;45307;-73
2024/01/15 05:46:29;;;;;;;;;33.75;30.25;;;;;;;;5059474;28;45383;-73
2024/01/15 05:48:54;;;;;;;;;32.75;28.75;;;;;;;;5041281;28;45386;-74
2024/01/15 05:51:20;;;;;;;;;36.75;30.00;;;;;;;;5059571;28;45425;-74
2024/01/15 05:53:45;;;;;;;;;30.25;24.00;;;;;;;;5041196;28;45856;-73
2024/01/15 05:56:11;;;;;;;;;34.25;29.50;;;;;;;;5059096;28;45520;-74
2024/01/15 05:58:36;;;;;;;;;31.50;30.00;;;;;;;;5059201;28;45471;-74
2024/01/15 06:01:01;;;;;;;;;31.75;26.50;;;;;;;;5059853;28;45309;-74
2024/01/15 06:03:26;;;;;;;;;32.25;28.50;;;;;;;;5059423;28;45552;-74
2024/01/15 06:05:51;;;;;;;;;30.00;26.25;;;;;;;;5059498;28;46085;-74
2024/01/15 06:08:17;;;;;;;;;37.00;32.50;;;;;;;;5059296;28;45418;-74
2024/01/15 06:10:42;;;;;;;;;29.50;26.00;;;;;;;;5059513;28;45399;-75
2024/01/15 06:13:07;;;;;;;;;31.00;28.25;;;;;;;;5062111;28;45316;-76
2024/01/15 06:15:32;;;;;;;;;25.00;24.00;;;;;;;;5056402;28;48281;-75
2024/01/15 06:17:57;;;;;;;;;31.25;27.25;;;;;;;;5080006;28;45494;-77
2024/01/15 06:20:24;;;;;;;;;26.75;21.25;;;;;;;;5080085;28;45424;-80
2024/01/15 06:22:49;;;;;;;;;28.50;26.75;;;;;;;;5061819;28;47235;-78
2024/01/15 06:25:14;;;;;;;;;27.75;27.75;;;;;;;;5059979;28;46255;-77
2024/01/15 06:27:39;;;;;;;;;35.25;28.75;;;;;;;;5049402;28;45905;-80
2024/01/15 06:30:05;;;;;;;;;32.50;28.00;;;;;;;;5066894;28;45482;-80
2024/01/15 06:32:30;;;;;;;;;32.50;29.25;;;;;;;;5078726;28;45479;-79
2024/01/15 06:34:55;;;;;;;;;21.50;21.00;;;;;;;;5042005;28;47246;-80
2024/01/15 06:37:20;;;;;;;;;27.50;25.50;;;;;;;;5057218;28;45320;-79
2024/01/15 06:39:46;;;;;;;;;29.25;26.25;;;;;;;;5058510;28;45379;-80
2024/01/15 06:42:11;;;;;;;;;33.50;27.75;;;;;;;;5040560;28;47184;-80
2024/01/15 06:44:36;;;;;;;;;31.25;29.75;;;;;;;;5058895;28;45377;-80
2024/01/15 06:47:02;;;;;;;;;31.00;26.50;;;;;;;;5058831;28;45153;-80
2024/01/15 06:49:30;;;;;;;;;32.00;29.25;;;;;;;;5058520;28;45262;-81
2024/01/15 06:51:55;;;;;;;;;39.00;34.25;;;;;;;;5058632;28;45320;-80
2024/01/15 06:54:20;;;;;;;;;45.25;38.00;;;;;;;;5042923;28;48598;-80
2024/01/15 06:56:46;;;;;;;;;43.00;36.75;;;;;;;;5043983;28;45347;-80
2024/01/15 06:59:11;;;;;;;;;39.25;31.25;;;;;;;;5062457;28;45558;-80
2024/01/15 07:01:36;;;;;;;;;30.50;28.00;;;;;;;;5062344;28;45517;-80
2024/01/15 07:04:01;;;;;;;;;35.25;32.25;;;;;;;;5062111;28;45383;-80
2024/01/15 07:06:26;;;;;;;;;40.25;35.25;;;;;;;;5062066;28;45343;-80
2024/01/15 07:08:51;;;;;;;;;28.75;26.25;;;;;;;;5044352;28;45560;-80
2024/01/15 07:11:17;;;;;;;;;30.50;26.75;;;;;;;;5062051;28;45303;-79
2024/01/15 07:13:42;;;;;;;;;30.00;26.50;;;;;;;;5043811;28;47374;-80
2024/01/15 07:16:07;;;;;;;;;17.25;16.75;;;;;;;;5043347;28;45336;-80
2024/01/15 07:18:32;;;;;;;;;33.75;27.00;;;;;;;;5061219;28;45691;-81
2024/01/15 07:20:59;;;;;;;;;34.00;31.00;;;;;;;;5061545;28;45465;-81
2024/01/15 07:23:24;;;;;;;;;29.75;25.00;;;;;;;;5061776;28;46017;-81
2024/01/15 07:25:49;;;;;;;;;27.00;26.25;;;;;;;;5061881;28;45347;-80
2024/01/15 07:28:14;;;;;;;;;32.75;29.75;;;;;;;;5062018;28;45315;-81
2024/01/15 07:30:39;;;;;;;;;32.75;30.50;;;;;;;;5043717;28;47115;-81
2024/01/15 07:33:05;;;;;;;;;35.25;33.25;;;;;;;;5043501;28;47422;-81
2024/01/15 07:35:30;;;;;;;;;35.75;29.75;;;;;;;;5061402;28;45307;-80
2024/01/15 07:37:55;;;;;;;;;29.75;25.50;;;;;;;;5060498;28;45233;-80
2024/01/15 07:40:20;;;;;;;;;27.75;25.25;;;;;;;;5061584;28;45311;-81
2024/01/15 07:42:46;;;;;;;;;30.50;29.75;;;;;;;;5061506;28;46464;-80
2024/01/15 07:45:11;;;;;;;;;30.75;27.25;;;;;;;;5061264;28;45372;-81
2024/01/15 07:47:36;;;;;;;;;27.25;26.25;;;;;;;;5060369;28;45336;-81
2024/01/15 07:50:01;;;;;;;;;37.50;34.00;;;;;;;;5061107;28;45582;-80
2024/01/15 07:52:26;;;;;;;;;33.25;30.25;;;;;;;;5042871;28;48325;-81
2024/01/15 07:54:52;;;;;;;;;33.75;28.00;;;;;;;;5061538;28;45203;-81
2024/01/15 07:57:17;;;;;;;;;28.00;27.00;;;;;;;;5061373;28;45491;-81
2024/01/15 07:59:42;;;;;;;;;30.50;26.50;;;;;;;;5043002;28;47281;-80
2024/01/15 08:02:07;;;;;;;;;27.75;21.50;;;;;;;;5061423;28;45161;-80
2024/01/15 08:04:32;;;;;;;;;32.75;29.25;;;;;;;;5060612;28;45208;-80
2024/01/15 08:06:58;;;;;;;;;32.25;31.25;;;;;;;;5061528;28;45171;-80
2024/01/15 08:09:23;;;;;;;;;35.75;27.75;;;;;;;;5070178;28;45297;-80
2024/01/15 08:11:49;;;;;;;;;33.75;29.00;;;;;;;;5081187;28;45277;-79
2024/01/15 08:14:14;;;;;;;;;27.00;25.75;;;;;;;;5082355;28;45421;-80
2024/01/15 08:16:40;;;;;;;;;38.25;31.75;;;;;;;;5082516;28;45354;-80
2024/01/15 08:19:05;;;;;;;;;34.25;31.50;;;;;;;;5083765;28;45323;-79
2024/01/15 08:21:31;;;;;;;;;30.50;30.50;;;;;;;;5068019;28;48521;-80
2024/01/15 08:23:57;;;;;;;;;28.50;28.50;;;;;;;;5087880;28;45321;-80
2024/01/15 08:26:22;;;;;;;;;36.25;33.50;;;;;;;;5087859;28;45315;-79
2024/01/15 08:28:47;;;;;;;;;39.00;33.50;;;;;;;;5091188;27;45262;-80
2024/01/15 08:31:13;;;;;;;;;33.50;28.00;;;;;;;;5046099;28;47025;-79
2024/01/15 08:33:38;;;;;;;;;36.00;33.25;;;;;;;;5082466;28;45324;-79
2024/01/15 08:36:03;;;;;;;;;40.50;36.00;;;;;;;;5056831;28;45428;-79
2024/01/15 08:38:28;;;;;;;;;37.75;33.75;;;;;;;;5087695;28;45601;-81
2024/01/15 08:40:56;;;;;;;;;40.75;34.75;;;;;;;;5085275;28;45389;-80
2024/01/15 08:43:21;;;;;;;;;44.75;40.25;;;;;;;;5085574;27;45289;-80
2024/01/15 08:45:48;;;;;;;;;43.25;35.50;;;;;;;;5051205;28;45427;-80
2024/01/15 08:48:13;;;;;;;;;45.00;42.00;;;;;;;;5046505;28;45403;-79
2024/01/15 08:50:38;;;;;;;;;45.50;40.00;;;;;;;;5070237;28;46237;-80
2024/01/15 08:53:04;;;;;;;;;41.75;37.75;;;;;;;;5062134;28;45447;-78
2024/01/15 08:55:29;;;;;;;;;44.25;38.75;;;;;;;;5058219;28;45486;-80
2024/01/15 08:57:54;;;;;;;;;32.25;29.50;;;;;;;;5059099;28;45490;-78
2024/01/15 09:00:19;;;;;;;;;41.00;37.25;;;;;;;;5057948;28;45490;-79
2024/01/15 09:02:45;;;;;;;;;35.50;32.75;;;;;;;;5040366;28;45316;-78
2024/01/15 09:05:10;;;;;;;;;39.25;34.50;;;;;;;;5040265;28;45513;-80
2024/01/15 09:07:35;;;;;;;;;33.50;32.25;;;;;;;;5059067;28;45563;-80
2024/01/15 09:10:01;;;;;;;;;32.25;28.75;;;;;;;;5059063;28;45371;-78
2024/01/15 09:12:26;;;;;;;;;39.50;36.00;;;;;;;;5058939;28;45351;-80
2024/01/15 09:14:51;;;;;;;;;31.00;31.00;;;;;;;;5047264;28;45665;-80
2024/01/15 09:17:17;;;;;;;;;40.00;36.00;;;;;;;;5077512;28;45430;-79
2024/01/15 09:19:42;;;;;;;;;37.25;34.75;;;;;;;;5061551;28;46151;-79
2024/01/15 09:22:08;;;;;;;;;41.75;34.50;;;;;;;;5078802;28;45309;-79
2024/01/15 09:24:33;;;;;;;;;40.75;37.25;;;;;;;;5063082;28;45362;-80
2024/01/15 09:26:58;;;;;;;;;39.50;36.50;;;;;;;;5041210;28;46132;-80
2024/01/15 09:29:23;;;;;;;;;34.50;33.25;;;;;;;;5041064;28;48127;-79
2024/01/15 09:31:50;;;;;;;;;34.00;28.75;;;;;;;;5034864;28;45392;-78
2024/01/15 09:34:15;;;;;;;;;33.75;26.00;;;;;;;;5055417;28;45305;-80
2024/01/15 09:36:42;;;;;;;;;27.50;26.75;;;;;;;;5066073;28;45742;-79
2024/01/15 09:39:08;;;;;;;;;30.25;28.75;;;;;;;;5056852;28;45477;-80
2024/01/15 09:41:35;;;;;;;;;27.75;26.25;;;;;;;;5057834;28;45361;-79
2024/01/15 09:44:00;;;;;;;;;29.00;29.00;;;;;;;;5039114;28;45788;-79
2024/01/15 09:46:25;;;;;;;;;28.75;28.00;;;;;;;;5056199;28;45361;-78
2024/01/15 09:48:50;;;;;;;;;31.50;27.50;;;;;;;;5055027;28;46026;-79
2024/01/15 09:51:16;;;;;;;;;34.00;29.00;;;;;;;;5055753;28;45751;-79
2024/01/15 09:53:41;;;;;;;;;26.75;24.75;;;;;;;;5055642;28;45443;-79
2024/01/15 09:56:07;;;;;;;;;23.50;22.00;;;;;;;;5055819;28;45779;-79
2024/01/15 09:58:33;;;;;;;;;29.00;24.75;;;;;;;;5055195;28;46162;-77
2024/01/15 10:00:59;;;;;;;;;30.75;29.00;;;;;;;;5050712;28;45585;-79
2024/01/15 10:03:24;;;;;;;;;26.00;22.75;;;;;;;;5057203;28;45249;-79
2024/01/15 10:05:49;;;;;;;;;22.75;22.75;;;;;;;;5057385;28;45334;-79
2024/01/15 10:08:14;;;;;;;;;22.50;20.00;;;;;;;;5058943;28;45529;-80
2024/01/15 10:10:40;;;;;;;;;28.25;26.75;;;;;;;;5045942;28;45383;-80
2024/01/15 10:13:06;;;;;;;;;27.75;23.50;;;;;;;;5042731;28;45399;-79
2024/01/15 10:15:33;;;;;;;;;29.00;27.25;;;;;;;;5065804;28;45510;-79
2024/01/15 10:17:59;;;;;;;;;26.00;23.50;;;;;;;;5067469;28;45445;-80
2024/01/15 10:20:24;;;;;;;;;28.75;23.75;;;;;;;;5056995;28;45488;-80
2024/01/15 10:22:50;;;;;;;;;21.33;18.67;;;;;;;;5039846;28;45453;-80
2024/01/15 10:25:15;;;;;;;;;13.00;12.67;;;;;;;;5069811;28;45373;-77
2024/01/15 10:27:41;;;;;;;;;11.00;10.00;;;;;;;;5071532;28;45407;-78
2024/01/15 10:30:07;;;;;;;;;17.67;16.67;;;;;;;;5070669;28;45548;-78
2024/01/15 10:32:32;;;;;;;;;18.00;14.00;;;;;;;;5050567;28;45352;-78
2024/01/15 10:34:57;;;;;;;;;19.33;14.00;;;;;;;;5060846;28;45315;-78
2024/01/15 10:37:24;;;;;;;;;17.00;14.00;;;;;;;;5061255;28;45400;-78
2024/01/15 10:39:49;;;;;;;;;19.75;19.25;;;;;;;;5060071;28;45340;-79
2024/01/15 10:42:14;;;;;;;;;13.33;12.00;;;;;;;;5061270;28;45485;-78
2024/01/15 10:44:41;;;;;;;;;14.33;14.00;;;;;;;;5050572;28;46279;-79
2024/01/15 10:47:06;;;;;;;;;16.33;14.33;;;;;;;;5042333;28;47309;-79
2024/01/15 10:49:32;;;;;;;;;13.67;13.67;;;;;;;;5041734;28;45836;-79
2024/01/15 10:51:58;;;;;;;;;7.00;5.33;;;;;;;;5044203;28;45294;-80
2024/01/15 10:54:23;;;;;;;;;4.00;4.00;;;;;;;;5044884;28;46170;-77
2024/01/15 10:56:53;;;;;;;;;7.00;6.67;;;;;;;;5046682;28;47176;-80
2024/01/15 10:59:20;;;;;;;;;5.00;5.00;;;;;;;;5060297;28;45427;-78
2024/01/15 11:01:46;;;;;;;;;7.00;4.33;;;;;;;;5041678;28;45343;-77
2024/01/15 11:04:11;;;;;;;;;6.00;6.00;;;;;;;;5060431;28;45521;-78
2024/01/15 11:06:44;;;;;;;;;4.00;4.00;;;;;;;;5034617;28;47115;-78
2024/01/15 11:09:10;;;;;;;;;4.00;3.00;;;;;;;;5054298;28;45388;-77
2024/01/15 11:11:36;;;;;;;;;4.33;4.00;;;;;;;;5041697;28;45324;-77
2024/01/15 11:14:01;;;;;;;;;6.00;3.33;;;;;;;;5060044;28;45347;-77
2024/01/15 11:16:47;;;;;;;;;3.67;2.67;;;;;;;;5041671;28;47324;-77
2024/01/15 11:19:12;;;;;;;;;5.00;4.00;;;;;;;;5060901;28;45329;-79
2024/01/15 11:21:42;;;;;;;;;1.00;1.00;;;;;;;;5059880;28;45364;-78
2024/01/15 11:24:11;;;;;;;;;1.67;1.67;;;;;;;;5042515;28;46499;-78
2024/01/15 11:26:36;;;;;;;;;5.00;2.67;;;;;;;;5041695;28;47748;-79
2024/01/15 11:29:05;;;;;;;;;4.25;4.25;;;;;;;;5060206;28;45218;-79
2024/01/15 11:31:40;;;;;;;;;7.00;5.33;;;;;;;;5060814;28;45403;-80
2024/01/15 11:34:06;;;;;;;;;3.33;3.33;;;;;;;;5060819;28;45510;-79
2024/01/15 11:36:54;;;;;;;;;4.00;4.00;;;;;;;;5043986;28;47082;-79
2024/01/15 11:39:30;;;;;;;;;3.00;2.67;;;;;;;;5029542;28;45545;-78
2024/01/15 11:41:55;;;;;;;;;0.00;0.00;;;;;;;;5043638;28;45385;-79
2024/01/15 11:44:21;;;;;;;;;3.33;3.33;;;;;;;;5061472;28;45552;-80
2024/01/15 11:46:53;;;;;;;;;6.33;5.33;;;;;;;;5061586;28;45634;-79
2024/01/15 11:49:26;;;;;;;;;3.00;2.00;;;;;;;;5061241;28;45364;-78
2024/01/15 11:51:53;;;;;;;;;4.00;3.67;;;;;;;;5060942;28;45422;-79
2024/01/15 11:54:20;;;;;;;;;4.00;3.67;;;;;;;;5060350;28;45439;-79
2024/01/15 11:56:46;;;;;;;;;6.67;5.00;;;;;;;;5061201;28;46402;-78
2024/01/15 11:59:11;;;;;;;;;1.00;1.00;;;;;;;;5043048;28;45997;-79
2024/01/15 12:01:36;;;;;;;;;7.00;3.00;;;;;;;;5058997;28;45465;-79
2024/01/15 12:04:02;;;;;;;;;1.00;1.00;;;;;;;;5060804;28;45297;-77
2024/01/15 12:06:27;;;;;;;;;6.67;4.00;;;;;;;;5060526;28;45491;-77
2024/01/15 12:09:05;;;;;;;;;2.00;1.00;;;;;;;;5054053;28;45402;-77
2024/01/15 12:11:31;;;;;;;;;2.00;1.67;;;;;;;;5051516;28;45740;-77
2024/01/15 12:13:57;;;;;;;;;4.00;4.00;;;;;;;;5060641;28;45725;-78
2024/01/15 12:16:22;;;;;;;;;2.00;2.00;;;;;;;;5040878;28;47935;-78
2024/01/15 12:18:47;;;;;;;;;3.00;3.00;;;;;;;;5041353;28;45485;-77
2024/01/15 12:21:19;;;;;;;;;1.00;1.00;;;;;;;;5040951;28;45463;-77
2024/01/15 12:23:48;;;;;;;;;3.00;3.00;;;;;;;;5038625;28;45439;-78
2024/01/15 12:26:14;;;;;;;;;3.67;3.67;;;;;;;;5052919;28;45811;-78
2024/01/15 12:28:39;;;;;;;;;3.00;2.67;;;;;;;;5067053;28;45469;-77
2024/01/15 12:31:05;;;;;;;;;3.33;3.00;;;;;;;;5076806;28;45318;-77
2024/01/15 12:33:30;;;;;;;;;4.00;3.00;;;;;;;;5058892;28;45323;-78
2024/01/15 12:35:55;;;;;;;;;3.50;3.50;;;;;;;;5059075;28;46082;-78
2024/01/15 12:38:21;;;;;;;;;3.67;3.67;;;;;;;;5058798;28;45331;-77
2024/01/15 12:40:49;;;;;;;;;5.00;4.33;;;;;;;;5058775;28;45299;-77
2024/01/15 12:43:14;;;;;;;;;0.67;0.67;;;;;;;;5042757;28;47183;-78
2024/01/15 12:45:40;;;;;;;;;2.33;2.00;;;;;;;;5069684;28;45500;-77
2024/01/15 12:48:05;;;;;;;;;3.33;1.33;;;;;;;;5059618;28;45412;-77
2024/01/15 12:50:32;;;;;;;;;1.00;1.00;;;;;;;;5060416;28;45423;-78
2024/01/15 12:52:59;;;;;;;;;5.00;3.67;;;;;;;;5057316;28;45357;-78
2024/01/15 12:55:24;;;;;;;;;2.67;2.67;;;;;;;;5020123;28;47267;-77
2024/01/15 12:57:52;;;;;;;;;3.00;2.00;;;;;;;;5037291;28;45489;-77
2024/01/15 13:00:17;;;;;;;;;3.00;3.00;;;;;;;;5059492;28;45236;-77
2024/01/15 13:02:42;;;;;;;;;1.67;1.67;;;;;;;;5035568;28;46526;-77
2024/01/15 13:05:08;;;;;;;;;1.00;1.00;;;;;;;;5065577;28;45396;-76
2024/01/15 13:07:34;;;;;;;;;2.00;2.00;;;;;;;;5068632;28;45406;-77
2024/01/15 13:09:59;;;;;;;;;3.00;2.67;;;;;;;;5067265;28;45467;-78
2024/01/15 13:12:24;;;;;;;;;3.00;3.00;;;;;;;;5069980;28;45525;-77
2024/01/15 13:14:49;;;;;;;;;2.00;2.00;;;;;;;;5067746;28;46164;-78
2024/01/15 13:17:14;;;;;;;;;4.67;3.33;;;;;;;;5067989;28;45939;-78
2024/01/15 13:19:40;;;;;;;;;4.00;4.00;;;;;;;;5062561;28;45464;-76
2024/01/15 13:22:07;;;;;;;;;2.67;2.67;;;;;;;;5056934;28;45396;-77
2024/01/15 13:24:32;;;;;;;;;2.00;1.00;;;;;;;;5037716;28;47733;-76
2024/01/15 13:26:57;;;;;;;;;2.00;2.00;;;;;;;;5056664;28;45598;-77
2024/01/15 13:29:22;;;;;;;;;4.67;4.00;;;;;;;;5026720;28;45489;-78
2024/01/15 13:31:48;;;;;;;;;2.00;1.00;;;;;;;;5056808;28;45437;-78
2024/01/15 13:34:13;;;;;;;;;2.33;2.33;;;;;;;;5055627;28;46478;-76
2024/01/15 13:36:39;;;;;;;;;0.00;0.00;;;;;;;;5052667;28;45392;-78
2024/01/15 13:39:08;;;;;;;;;2.00;2.00;;;;;;;;5040208;28;45332;-77
2024/01/15 13:41:33;;;;;;;;;2.00;2.00;;;;;;;;5058316;28;46067;-77
2024/01/15 13:43:59;;;;;;;;;2.00;1.00;;;;;;;;5039358;28;46174;-77
2024/01/15 13:46:29;;;;;;;;;0.67;0.67;;;;;;;;5039758;28;45682;-76
2024/01/15 13:48:54;;;;;;;;;1.00;1.00;;;;;;;;5041765;28;45463;-77
2024/01/15 13:51:22;;;;;;;;;1.33;1.33;;;;;;;;5066534;28;45498;-76
2024/01/15 13:53:47;;;;;;;;;2.00;2.00;;;;;;;;5045797;28;47248;-77
2024/01/15 13:56:12;;;;;;;;;2.00;0.33;;;;;;;;5060437;28;45488;-77
2024/01/15 13:58:37;;;;;;;;;2.00;2.00;;;;;;;;5059910;28;45527;-77
2024/01/15 14:01:04;;;;;;;;;1.00;1.00;;;;;;;;5059289;28;45604;-77
2024/01/15 14:03:29;;;;;;;;;1.33;1.33;;;;;;;;5064931;28;46027;-77
2024/01/15 14:05:54;;;;;;;;;1.00;1.00;;;;;;;;5067935;28;45570;-80
2024/01/15 14:08:20;;;;;;;;;1.00;1.00;;;;;;;;5059101;28;45438;-78
2024/01/15 14:10:45;;;;;;;;;3.00;3.00;;;;;;;;5044247;28;45595;-76
2024/01/15 14:13:10;;;;;;;;;5.67;4.33;;;;;;;;5057595;28;45467;-76
2024/01/15 14:15:36;;;;;;;;;2.67;2.67;;;;;;;;5037492;28;45723;-78